sensor_id;sensor_type;location;lat;lon;timestamp;temperature;humidity
15298;DHT22;7750;48.796;9.026;2023-11-19T00:03:45;11.80;84.60
15298;DHT22;7750;48.796;9.026;2023-11-19T00:08:47;11.80;85.00
15298;DHT22;7750;48.796;9.026;2023-11-19T00:13:48;11.90;85.20
15298;DHT22;7750;48.796;9.026;2023-11-19T00:18:49;11.90;85.30
15298;DHT22;7750;48.796;9.026;2023-11-19T00:23:50;11.90;85.60
15298;DHT22;7750;48.796;9.026;2023-11-19T00:28:52;11.90;86.60
15298;DHT22;7750;48.796;9.026;2023-11-19T00:33:53;11.90;87.60
15298;DHT22;7750;48.796;9.026;2023-11-19T00:38:54;12.00;87.70
15298;DHT22;7750;48.796;9.026;2023-11-19T00:43:55;12.00;87.90
15298;DHT22;7750;48.796;9.026;2023-11-19T00:48:56;12.10;88.20
15298;DHT22;7750;48.796;9.026;2023-11-19T00:53:59;12.10;88.90
15298;DHT22;7750;48.796;9.026;2023-11-19T00:59:01;12.20;88.80
15298;DHT22;7750;48.796;9.026;2023-11-19T01:04:01;12.30;88.40
15298;DHT22;7750;48.796;9.026;2023-11-19T01:09:02;12.30;88.40
15298;DHT22;7750;48.796;9.026;2023-11-19T01:14:03;12.40;88.70
15298;DHT22;7750;48.796;9.026;2023-11-19T01:19:04;12.40;88.40
15298;DHT22;7750;48.796;9.026;2023-11-19T01:24:05;12.40;88.80
15298;DHT22;7750;48.796;9.026;2023-11-19T01:29:09;12.50;88.90
15298;DHT22;7750;48.796;9.026;2023-11-19T01:34:10;12.50;88.90
15298;DHT22;7750;48.796;9.026;2023-11-19T01:39:11;12.60;88.90
15298;DHT22;7750;48.796;9.026;2023-11-19T01:44:12;12.60;88.90
15298;DHT22;7750;48.796;9.026;2023-11-19T01:49:14;12.60;88.80
15298;DHT22;7750;48.796;9.026;2023-11-19T01:54:16;12.70;88.90
15298;DHT22;7750;48.796;9.026;2023-11-19T01:59:17;12.70;89.00
15298;DHT22;7750;48.796;9.026;2023-11-19T02:04:17;12.70;89.30
15298;DHT22;7750;48.796;9.026;2023-11-19T02:09:19;12.80;90.10
15298;DHT22;7750;48.796;9.026;2023-11-19T02:14:23;12.80;89.90
15298;DHT22;7750;48.796;9.026;2023-11-19T02:19:24;12.90;90.20
15298;DHT22;7750;48.796;9.026;2023-11-19T02:24:26;12.90;90.10
15298;DHT22;7750;48.796;9.026;2023-11-19T02:29:29;12.90;90.20
15298;DHT22;7750;48.796;9.026;2023-11-19T02:34:30;13.00;90.20
15298;DHT22;7750;48.796;9.026;2023-11-19T02:39:31;13.00;90.20
15298;DHT22;7750;48.796;9.026;2023-11-19T02:44:32;13.10;90.30
15298;DHT22;7750;48.796;9.026;2023-11-19T02:49:32;13.10;90.30
15298;DHT22;7750;48.796;9.026;2023-11-19T02:54:33;13.20;90.40
15298;DHT22;7750;48.796;9.026;2023-11-19T02:59:38;13.20;90.40
15298;DHT22;7750;48.796;9.026;2023-11-19T03:04:43;13.20;90.40
15298;DHT22;7750;48.796;9.026;2023-11-19T03:09:45;13.30;90.40
15298;DHT22;7750;48.796;9.026;2023-11-19T03:14:46;13.30;90.50
15298;DHT22;7750;48.796;9.026;2023-11-19T03:19:48;13.30;90.50
15298;DHT22;7750;48.796;9.026;2023-11-19T03:24:51;13.40;90.50
15298;DHT22;7750;48.796;9.026;2023-11-19T03:29:51;13.40;90.50
15298;DHT22;7750;48.796;9.026;2023-11-19T03:34:52;13.40;90.50
15298;DHT22;7750;48.796;9.026;2023-11-19T03:39:59;13.50;90.50
15298;DHT22;7750;48.796;9.026;2023-11-19T03:45:00;13.50;90.60
15298;DHT22;7750;48.796;9.026;2023-11-19T03:50:01;13.50;90.50
15298;DHT22;7750;48.796;9.026;2023-11-19T03:55:03;13.60;90.60
15298;DHT22;7750;48.796;9.026;2023-11-19T04:00:06;13.60;90.50
15298;DHT22;7750;48.796;9.026;2023-11-19T04:05:10;13.70;90.50
15298;DHT22;7750;48.796;9.026;2023-11-19T04:10:11;13.70;90.40
15298;DHT22;7750;48.796;9.026;2023-11-19T04:15:12;13.70;90.50
15298;DHT22;7750;48.796;9.026;2023-11-19T04:20:12;13.80;90.40
15298;DHT22;7750;48.796;9.026;2023-11-19T04:25:14;13.80;90.40
15298;DHT22;7750;48.796;9.026;2023-11-19T04:30:15;13.80;90.40
15298;DHT22;7750;48.796;9.026;2023-11-19T04:35:16;13.80;90.30
15298;DHT22;7750;48.796;9.026;2023-11-19T04:40:17;13.80;90.30
15298;DHT22;7750;48.796;9.026;2023-11-19T04:45:18;13.90;90.30
15298;DHT22;7750;48.796;9.026;2023-11-19T04:50:19;13.90;90.40
15298;DHT22;7750;48.796;9.026;2023-11-19T04:55:20;13.90;90.30
15298;DHT22;7750;48.796;9.026;2023-11-19T05:00:20;13.90;90.30
15298;DHT22;7750;48.796;9.026;2023-11-19T05:05:22;13.90;90.70
15298;DHT22;7750;48.796;9.026;2023-11-19T05:10:22;14.00;90.40
15298;DHT22;7750;48.796;9.026;2023-11-19T05:15:23;14.00;90.40
15298;DHT22;7750;48.796;9.026;2023-11-19T05:20:24;14.00;90.80
15298;DHT22;7750;48.796;9.026;2023-11-19T05:25:25;14.00;90.60
15298;DHT22;7750;48.796;9.026;2023-11-19T05:30:27;14.00;90.60
15298;DHT22;7750;48.796;9.026;2023-11-19T05:35:27;14.10;90.60
15298;DHT22;7750;48.796;9.026;2023-11-19T05:40:28;14.10;90.70
15298;DHT22;7750;48.796;9.026;2023-11-19T05:45:28;14.20;90.60
15298;DHT22;7750;48.796;9.026;2023-11-19T05:50:29;14.20;90.60
15298;DHT22;7750;48.796;9.026;2023-11-19T05:55:30;14.20;90.50
15298;DHT22;7750;48.796;9.026;2023-11-19T06:00:31;14.20;90.50
15298;DHT22;7750;48.796;9.026;2023-11-19T06:05:32;14.30;90.40
15298;DHT22;7750;48.796;9.026;2023-11-19T06:10:32;14.30;90.40
15298;DHT22;7750;48.796;9.026;2023-11-19T06:15:34;14.30;90.40
15298;DHT22;7750;48.796;9.026;2023-11-19T06:20:34;14.30;90.30
15298;DHT22;7750;48.796;9.026;2023-11-19T06:25:35;14.30;90.40
15298;DHT22;7750;48.796;9.026;2023-11-19T06:30:36;14.40;90.50
15298;DHT22;7750;48.796;9.026;2023-11-19T06:35:36;14.40;90.50
15298;DHT22;7750;48.796;9.026;2023-11-19T06:40:37;14.40;90.60
15298;DHT22;7750;48.796;9.026;2023-11-19T06:45:38;14.40;90.50
15298;DHT22;7750;48.796;9.026;2023-11-19T06:50:38;14.50;90.40
15298;DHT22;7750;48.796;9.026;2023-11-19T06:55:39;14.50;90.30
15298;DHT22;7750;48.796;9.026;2023-11-19T07:00:39;14.50;90.30
15298;DHT22;7750;48.796;9.026;2023-11-19T07:05:40;14.50;90.30
15298;DHT22;7750;48.796;9.026;2023-11-19T07:10:40;14.60;90.20
15298;DHT22;7750;48.796;9.026;2023-11-19T07:15:41;14.60;90.20
15298;DHT22;7750;48.796;9.026;2023-11-19T07:20:42;14.60;90.10
15298;DHT22;7750;48.796;9.026;2023-11-19T07:25:43;14.60;90.10
15298;DHT22;7750;48.796;9.026;2023-11-19T07:30:47;14.60;90.40
15298;DHT22;7750;48.796;9.026;2023-11-19T07:35:47;14.60;90.00
15298;DHT22;7750;48.796;9.026;2023-11-19T07:40:49;14.70;90.10
15298;DHT22;7750;48.796;9.026;2023-11-19T07:45:49;14.70;90.10
15298;DHT22;7750;48.796;9.026;2023-11-19T07:50:50;14.70;90.30
15298;DHT22;7750;48.796;9.026;2023-11-19T07:55:51;14.70;90.00
15298;DHT22;7750;48.796;9.026;2023-11-19T08:00:51;14.70;90.00
15298;DHT22;7750;48.796;9.026;2023-11-19T08:05:55;14.70;90.00
15298;DHT22;7750;48.796;9.026;2023-11-19T08:10:57;14.80;90.10
15298;DHT22;7750;48.796;9.026;2023-11-19T08:15:58;14.80;90.10
15298;DHT22;7750;48.796;9.026;2023-11-19T08:20:58;14.80;90.10
15298;DHT22;7750;48.796;9.026;2023-11-19T08:26:02;14.90;90.10
15298;DHT22;7750;48.796;9.026;2023-11-19T08:31:04;14.90;90.10
15298;DHT22;7750;48.796;9.026;2023-11-19T08:36:06;15.00;90.10
15298;DHT22;7750;48.796;9.026;2023-11-19T08:41:06;15.00;90.20
15298;DHT22;7750;48.796;9.026;2023-11-19T08:46:11;15.10;90.20
15298;DHT22;7750;48.796;9.026;2023-11-19T08:51:15;15.20;90.00
15298;DHT22;7750;48.796;9.026;2023-11-19T08:56:15;15.30;90.00
15298;DHT22;7750;48.796;9.026;2023-11-19T09:01:16;15.30;89.30
15298;DHT22;7750;48.796;9.026;2023-11-19T09:06:17;15.30;89.50
15298;DHT22;7750;48.796;9.026;2023-11-19T09:11:17;15.40;89.60
15298;DHT22;7750;48.796;9.026;2023-11-19T09:16:18;15.50;89.80
15298;DHT22;7750;48.796;9.026;2023-11-19T09:21:19;15.50;89.70
15298;DHT22;7750;48.796;9.026;2023-11-19T09:26:19;15.60;89.00
15298;DHT22;7750;48.796;9.026;2023-11-19T09:31:20;15.60;88.70
15298;DHT22;7750;48.796;9.026;2023-11-19T09:36:21;15.70;89.40
15298;DHT22;7750;48.796;9.026;2023-11-19T09:41:21;15.90;89.00
15298;DHT22;7750;48.796;9.026;2023-11-19T09:46:23;16.00;88.20
15298;DHT22;7750;48.796;9.026;2023-11-19T09:51:24;16.20;88.50
15298;DHT22;7750;48.796;9.026;2023-11-19T09:56:26;16.30;87.50
15298;DHT22;7750;48.796;9.026;2023-11-19T10:01:29;16.50;85.60
15298;DHT22;7750;48.796;9.026;2023-11-19T10:06:32;16.80;85.20
15298;DHT22;7750;48.796;9.026;2023-11-19T10:11:33;17.10;83.60
15298;DHT22;7750;48.796;9.026;2023-11-19T10:16:35;17.20;81.30
15298;DHT22;7750;48.796;9.026;2023-11-19T10:21:35;17.40;81.60
15298;DHT22;7750;48.796;9.026;2023-11-19T10:26:49;17.50;81.40
15298;DHT22;7750;48.796;9.026;2023-11-19T10:32:00;17.70;80.20
15298;DHT22;7750;48.796;9.026;2023-11-19T10:37:04;17.80;79.00
15298;DHT22;7750;48.796;9.026;2023-11-19T10:42:16;17.80;77.70
15298;DHT22;7750;48.796;9.026;2023-11-19T10:47:19;17.90;78.30
15298;DHT22;7750;48.796;9.026;2023-11-19T10:52:22;18.10;77.30
15298;DHT22;7750;48.796;9.026;2023-11-19T10:57:28;18.20;75.70
15298;DHT22;7750;48.796;9.026;2023-11-19T11:02:30;18.30;74.10
15298;DHT22;7750;48.796;9.026;2023-11-19T11:07:35;18.30;74.60
15298;DHT22;7750;48.796;9.026;2023-11-19T11:12:37;18.30;72.50
15298;DHT22;7750;48.796;9.026;2023-11-19T11:17:43;18.30;72.20
15298;DHT22;7750;48.796;9.026;2023-11-19T11:23:40;18.20;71.90
15298;DHT22;7750;48.796;9.026;2023-11-19T11:28:39;18.20;71.40
15298;DHT22;7750;48.796;9.026;2023-11-19T11:33:58;18.10;70.30
15298;DHT22;7750;48.796;9.026;2023-11-19T11:38:59;18.00;71.10
15298;DHT22;7750;48.796;9.026;2023-11-19T11:44:01;17.90;70.90
15298;DHT22;7750;48.796;9.026;2023-11-19T11:49:03;17.90;72.00
15298;DHT22;7750;48.796;9.026;2023-11-19T11:54:04;17.90;71.70
15298;DHT22;7750;48.796;9.026;2023-11-19T11:59:16;17.90;72.60
15298;DHT22;7750;48.796;9.026;2023-11-19T12:04:18;18.10;72.50
15298;DHT22;7750;48.796;9.026;2023-11-19T12:09:19;18.30;73.20
15298;DHT22;7750;48.796;9.026;2023-11-19T12:20:23;18.60;69.50
15298;DHT22;7750;48.796;9.026;2023-11-19T12:25:38;18.60;67.60
15298;DHT22;7750;48.796;9.026;2023-11-19T12:35:47;18.70;69.00
15298;DHT22;7750;48.796;9.026;2023-11-19T12:41:03;18.90;67.40
15298;DHT22;7750;48.796;9.026;2023-11-19T12:46:24;19.20;63.80
15298;DHT22;7750;48.796;9.026;2023-11-19T12:51:47;19.30;64.80
15298;DHT22;7750;48.796;9.026;2023-11-19T12:56:52;19.40;65.20
15298;DHT22;7750;48.796;9.026;2023-11-19T13:01:57;19.50;63.80
15298;DHT22;7750;48.796;9.026;2023-11-19T13:06:59;19.50;62.90
15298;DHT22;7750;48.796;9.026;2023-11-19T13:11:59;19.50;62.30
15298;DHT22;7750;48.796;9.026;2023-11-19T13:17:14;19.40;61.60
15298;DHT22;7750;48.796;9.026;2023-11-19T13:22:15;19.50;61.90
15298;DHT22;7750;48.796;9.026;2023-11-19T13:32:26;19.80;62.60
15298;DHT22;7750;48.796;9.026;2023-11-19T13:37:27;19.90;60.50
15298;DHT22;7750;48.796;9.026;2023-11-19T13:42:30;19.90;59.60
15298;DHT22;7750;48.796;9.026;2023-11-19T13:47:30;19.90;59.40
15298;DHT22;7750;48.796;9.026;2023-11-19T13:52:31;19.90;58.60
15298;DHT22;7750;48.796;9.026;2023-11-19T13:57:31;19.90;56.90
15298;DHT22;7750;48.796;9.026;2023-11-19T14:02:34;19.90;56.00
15298;DHT22;7750;48.796;9.026;2023-11-19T14:07:48;19.90;56.60
15298;DHT22;7750;48.796;9.026;2023-11-19T14:12:49;19.90;56.30
15298;DHT22;7750;48.796;9.026;2023-11-19T14:17:52;19.80;56.30
15298;DHT22;7750;48.796;9.026;2023-11-19T14:22:55;19.80;57.30
15298;DHT22;7750;48.796;9.026;2023-11-19T15:10:01;20.20;56.20
15298;DHT22;7750;48.796;9.026;2023-11-19T15:15:09;20.10;55.50
15298;DHT22;7750;48.796;9.026;2023-11-19T15:25:51;19.90;55.50
15298;DHT22;7750;48.796;9.026;2023-11-19T15:30:51;19.60;55.30
15298;DHT22;7750;48.796;9.026;2023-11-19T15:35:54;19.30;55.50
15298;DHT22;7750;48.796;9.026;2023-11-19T15:40:56;19.00;56.20
15298;DHT22;7750;48.796;9.026;2023-11-19T15:46:08;18.70;56.70
15298;DHT22;7750;48.796;9.026;2023-11-19T15:51:24;18.40;57.20
15298;DHT22;7750;48.796;9.026;2023-11-19T16:01:49;18.00;58.50
15298;DHT22;7750;48.796;9.026;2023-11-19T16:11:54;17.60;59.80
15298;DHT22;7750;48.796;9.026;2023-11-19T16:16:55;17.40;59.60
15298;DHT22;7750;48.796;9.026;2023-11-19T16:21:55;17.30;60.00
15298;DHT22;7750;48.796;9.026;2023-11-19T16:26:56;17.20;60.40
15298;DHT22;7750;48.796;9.026;2023-11-19T16:31:57;17.10;60.90
15298;DHT22;7750;48.796;9.026;2023-11-19T16:37:17;16.90;61.30
15298;DHT22;7750;48.796;9.026;2023-11-19T16:42:22;16.90;61.70
15298;DHT22;7750;48.796;9.026;2023-11-19T16:47:26;16.80;62.00
15298;DHT22;7750;48.796;9.026;2023-11-19T16:52:26;16.80;62.30
15298;DHT22;7750;48.796;9.026;2023-11-19T16:57:27;16.70;62.50
15298;DHT22;7750;48.796;9.026;2023-11-19T17:02:28;16.60;62.80
15298;DHT22;7750;48.796;9.026;2023-11-19T17:07:30;16.50;63.00
15298;DHT22;7750;48.796;9.026;2023-11-19T17:12:31;16.40;63.10
15298;DHT22;7750;48.796;9.026;2023-11-19T17:17:38;16.40;63.30
15298;DHT22;7750;48.796;9.026;2023-11-19T17:22:39;16.30;63.60
15298;DHT22;7750;48.796;9.026;2023-11-19T17:27:41;16.20;63.70
15298;DHT22;7750;48.796;9.026;2023-11-19T17:32:44;16.20;63.90
15298;DHT22;7750;48.796;9.026;2023-11-19T17:37:44;16.20;64.20
15298;DHT22;7750;48.796;9.026;2023-11-19T17:42:45;16.10;64.30
15298;DHT22;7750;48.796;9.026;2023-11-19T17:47:46;16.00;63.90
15298;DHT22;7750;48.796;9.026;2023-11-19T17:52:47;15.90;64.00
15298;DHT22;7750;48.796;9.026;2023-11-19T17:57:48;15.90;63.90
15298;DHT22;7750;48.796;9.026;2023-11-19T18:02:51;15.80;63.90
15298;DHT22;7750;48.796;9.026;2023-11-19T18:07:53;15.80;63.80
15298;DHT22;7750;48.796;9.026;2023-11-19T18:12:53;15.80;63.50
15298;DHT22;7750;48.796;9.026;2023-11-19T18:17:54;15.70;63.60
15298;DHT22;7750;48.796;9.026;2023-11-19T18:22:54;15.70;63.80
15298;DHT22;7750;48.796;9.026;2023-11-19T18:27:55;15.70;63.90
15298;DHT22;7750;48.796;9.026;2023-11-19T18:32:56;15.60;64.10
15298;DHT22;7750;48.796;9.026;2023-11-19T18:38:00;15.60;64.40
15298;DHT22;7750;48.796;9.026;2023-11-19T18:43:00;15.60;64.80
15298;DHT22;7750;48.796;9.026;2023-11-19T18:48:02;15.50;65.00
15298;DHT22;7750;48.796;9.026;2023-11-19T18:53:03;15.50;65.30
15298;DHT22;7750;48.796;9.026;2023-11-19T18:58:03;15.40;65.40
15298;DHT22;7750;48.796;9.026;2023-11-19T19:03:04;15.40;65.60
15298;DHT22;7750;48.796;9.026;2023-11-19T19:08:07;15.40;65.90
15298;DHT22;7750;48.796;9.026;2023-11-19T19:13:08;15.40;66.20
15298;DHT22;7750;48.796;9.026;2023-11-19T19:18:08;15.40;66.70
15298;DHT22;7750;48.796;9.026;2023-11-19T19:23:09;15.40;66.90
15298;DHT22;7750;48.796;9.026;2023-11-19T19:28:11;15.40;68.50
15298;DHT22;7750;48.796;9.026;2023-11-19T19:33:12;15.40;69.90
15298;DHT22;7750;48.796;9.026;2023-11-19T19:38:13;15.40;72.20
15298;DHT22;7750;48.796;9.026;2023-11-19T19:43:13;15.30;73.00
15298;DHT22;7750;48.796;9.026;2023-11-19T19:48:14;15.20;74.40
15298;DHT22;7750;48.796;9.026;2023-11-19T19:53:16;15.10;75.40
15298;DHT22;7750;48.796;9.026;2023-11-19T19:58:24;15.00;76.40
15298;DHT22;7750;48.796;9.026;2023-11-19T20:03:24;14.80;76.50
15298;DHT22;7750;48.796;9.026;2023-11-19T20:08:25;14.80;77.50
15298;DHT22;7750;48.796;9.026;2023-11-19T20:13:27;14.70;78.10
15298;DHT22;7750;48.796;9.026;2023-11-19T20:18:29;14.60;78.90
15298;DHT22;7750;48.796;9.026;2023-11-19T20:23:30;14.50;78.80
15298;DHT22;7750;48.796;9.026;2023-11-19T20:28:32;14.50;79.70
15298;DHT22;7750;48.796;9.026;2023-11-19T20:33:32;14.40;78.90
15298;DHT22;7750;48.796;9.026;2023-11-19T20:38:33;14.30;78.20
15298;DHT22;7750;48.796;9.026;2023-11-19T20:43:34;14.30;77.60
15298;DHT22;7750;48.796;9.026;2023-11-19T20:48:37;14.20;77.40
15298;DHT22;7750;48.796;9.026;2023-11-19T20:53:38;14.20;77.00
15298;DHT22;7750;48.796;9.026;2023-11-19T20:58:39;14.10;76.30
15298;DHT22;7750;48.796;9.026;2023-11-19T21:03:40;14.10;76.10
15298;DHT22;7750;48.796;9.026;2023-11-19T21:08:41;14.00;76.40
15298;DHT22;7750;48.796;9.026;2023-11-19T21:13:42;13.90;76.10
15298;DHT22;7750;48.796;9.026;2023-11-19T21:18:45;13.90;76.30
15298;DHT22;7750;48.796;9.026;2023-11-19T21:23:46;13.90;75.80
15298;DHT22;7750;48.796;9.026;2023-11-19T21:39:11;13.90;75.30
15298;DHT22;7750;48.796;9.026;2023-11-19T21:44:22;13.90;75.60
15298;DHT22;7750;48.796;9.026;2023-11-19T21:49:53;13.90;75.00
15298;DHT22;7750;48.796;9.026;2023-11-19T22:21:18;13.80;73.50
15298;DHT22;7750;48.796;9.026;2023-11-19T22:52:33;13.70;72.40
15298;DHT22;7750;48.796;9.026;2023-11-19T23:02:51;13.70;71.90
15298;DHT22;7750;48.796;9.026;2023-11-19T23:07:55;13.70;71.20
15298;DHT22;7750;48.796;9.026;2023-11-19T23:23:27;13.70;69.70
